Time;durP1;ratioP1;P1;durP2;ratioP2;P2;SDS_P1;SDS_P2;PMS_P1;PMS_P2;Temp;Humidity;BMP_temperature;BMP_pressure;BME280_temperature;BME280_humidity;BME280_pressure;Samples;Min_cycle;Max_cycle;Signal;HPM_P1;HPM_P2
2023/04/22 00:02:05;;;;;;;;;;;9.60;88.90;;;;;;5041597;28;20012;-87
2023/04/22 00:04:30;;;;;;;;;;;9.60;89.10;;;;;;5036915;28;20012;-88
2023/04/22 00:06:59;;;;;;;;;;;9.70;89.00;;;;;;5044502;28;19920;-88
2023/04/22 00:09:24;;;;;;;;;;;9.70;89.10;;;;;;5036722;28;19908;-88
2023/04/22 00:11:50;;;;;;;;;;;9.80;89.00;;;;;;5046548;28;19928;-88
2023/04/22 00:14:19;;;;;;;;;;;9.80;88.90;;;;;;5046183;28;20291;-87
2023/04/22 00:16:44;;;;;;;;;;;9.80;89.00;;;;;;5048365;28;19945;-88
2023/04/22 00:19:10;;;;;;;;;;;9.80;88.80;;;;;;5051398;28;19983;-88
2023/04/22 00:21:35;;;;;;;;;;;9.70;88.60;;;;;;5043839;28;19944;-88
2023/04/22 00:24:01;;;;;;;;;;;9.50;88.20;;;;;;5056336;28;19901;-87
2023/04/22 00:26:27;;;;;;;;;;;9.40;88.40;;;;;;5051247;28;19945;-88
2023/04/22 00:28:52;;;;;;;;;;;9.30;88.40;;;;;;5041273;28;19983;-88
2023/04/22 00:31:23;;;;;;;;;;;9.30;87.90;;;;;;5037266;28;19914;-88
2023/04/22 00:33:52;;;;;;;;;;;9.20;87.80;;;;;;5048378;28;19956;-88
2023/04/22 00:36:17;;;;;;;;;;;9.10;88.00;;;;;;5039971;28;19913;-89
2023/04/22 00:38:47;;;;;;;;;;;9.10;88.10;;;;;;5040659;28;19913;-88
2023/04/22 00:41:12;;;;;;;;;;;9.10;87.90;;;;;;5037376;28;19913;-88
2023/04/22 00:43:37;;;;;;;;;;;9.20;88.10;;;;;;5038880;28;20413;-88
2023/04/22 00:46:03;;;;;;;;;;;9.20;88.20;;;;;;5040803;28;19924;-88
2023/04/22 00:48:29;;;;;;;;;;;9.20;88.20;;;;;;5065550;28;20327;-88
2023/04/22 00:50:54;;;;;;;;;;;9.20;88.70;;;;;;5038656;28;19920;-88
2023/04/22 00:53:20;;;;;;;;;;;9.30;88.80;;;;;;5047187;28;19924;-88
2023/04/22 00:55:45;;;;;;;;;;;9.20;88.90;;;;;;5047959;28;20374;-87
2023/04/22 00:58:11;;;;;;;;;;;9.30;88.60;;;;;;5044200;28;19920;-88
2023/04/22 01:00:36;;;;;;;;;;;9.50;88.80;;;;;;5043394;28;20051;-89
2023/04/22 01:03:02;;;;;;;;;;;9.50;88.50;;;;;;5038991;28;20433;-88
2023/04/22 01:05:29;;;;;;;;;;;9.60;88.60;;;;;;5049923;28;19927;-88
2023/04/22 01:07:55;;;;;;;;;;;9.60;88.60;;;;;;5038390;28;20007;-88
2023/04/22 01:10:20;;;;;;;;;;;9.60;88.80;;;;;;5045868;28;20040;-88
2023/04/22 01:12:46;;;;;;;;;;;9.60;88.60;;;;;;5040355;28;20350;-87
2023/04/22 01:15:15;;;;;;;;;;;9.60;88.40;;;;;;5048204;28;19931;-87
2023/04/22 01:17:44;;;;;;;;;;;9.60;88.30;;;;;;5049950;28;19939;-87
2023/04/22 01:20:10;;;;;;;;;;;9.60;88.40;;;;;;5046007;28;20386;-88
2023/04/22 01:22:40;;;;;;;;;;;9.70;88.20;;;;;;5037632;28;19944;-88
2023/04/22 01:25:05;;;;;;;;;;;9.60;87.80;;;;;;5040023;28;19920;-88
2023/04/22 01:27:31;;;;;;;;;;;9.70;88.10;;;;;;5042800;28;19913;-87
2023/04/22 01:29:57;;;;;;;;;;;9.60;88.10;;;;;;5041480;28;19967;-88
2023/04/22 01:32:26;;;;;;;;;;;9.70;88.00;;;;;;5041476;28;20305;-88
2023/04/22 01:34:51;;;;;;;;;;;9.70;88.10;;;;;;5042738;28;20008;-88
2023/04/22 01:37:20;;;;;;;;;;;9.70;88.10;;;;;;5043937;28;19967;-88
2023/04/22 01:39:48;;;;;;;;;;;9.70;87.60;;;;;;5040247;28;20290;-87
2023/04/22 01:42:16;;;;;;;;;;;9.60;87.60;;;;;;5042958;28;19921;-88
2023/04/22 01:44:41;;;;;;;;;;;9.70;87.70;;;;;;5041820;28;20344;-87
2023/04/22 01:47:07;;;;;;;;;;;9.70;87.50;;;;;;5035614;28;20084;-88
2023/04/22 01:49:33;;;;;;;;;;;9.60;87.80;;;;;;5042493;28;19913;-88
2023/04/22 01:51:58;;;;;;;;;;;9.60;87.90;;;;;;5041706;28;19916;-87
2023/04/22 01:54:24;;;;;;;;;;;9.70;87.70;;;;;;5045250;28;20275;-88
2023/04/22 01:56:50;;;;;;;;;;;9.70;87.90;;;;;;5042403;28;19913;-88
2023/04/22 01:59:20;;;;;;;;;;;9.80;87.60;;;;;;5049391;28;19921;-87
2023/04/22 02:01:45;;;;;;;;;;;9.80;87.80;;;;;;5050729;28;20012;-88
2023/04/22 02:04:11;;;;;;;;;;;9.80;88.10;;;;;;5044932;28;19917;-88
2023/04/22 02:06:39;;;;;;;;;;;9.80;88.10;;;;;;5041163;28;19949;-88
2023/04/22 02:09:05;;;;;;;;;;;9.80;88.10;;;;;;5044967;28;19955;-88
2023/04/22 02:11:30;;;;;;;;;;;9.70;88.40;;;;;;5048465;28;19912;-88
2023/04/22 02:13:56;;;;;;;;;;;9.70;88.30;;;;;;5040634;28;19912;-87
2023/04/22 02:16:21;;;;;;;;;;;9.70;88.30;;;;;;5053566;28;19916;-88
2023/04/22 02:18:46;;;;;;;;;;;9.70;88.40;;;;;;5045989;28;20092;-86
2023/04/22 02:21:15;;;;;;;;;;;9.80;88.30;;;;;;5051186;28;19924;-87
2023/04/22 02:23:40;;;;;;;;;;;9.80;88.10;;;;;;5041831;28;19920;-87
2023/04/22 02:26:12;;;;;;;;;;;9.80;87.90;;;;;;5038992;28;20401;-87
2023/04/22 02:28:37;;;;;;;;;;;9.80;87.80;;;;;;5052450;28;19923;-88
2023/04/22 02:31:03;;;;;;;;;;;9.80;87.90;;;;;;5039118;28;19913;-87
2023/04/22 02:33:28;;;;;;;;;;;9.80;87.80;;;;;;5043579;28;19913;-87
2023/04/22 02:35:54;;;;;;;;;;;9.80;88.10;;;;;;5075628;28;19935;-87
2023/04/22 02:38:25;;;;;;;;;;;9.80;88.50;;;;;;5057075;28;19912;-88
2023/04/22 02:43:59;;;;;;;;;;;9.80;88.60;;;;;;5041110;28;19924;-88
2023/04/22 02:46:25;;;;;;;;;;;9.80;88.60;;;;;;5040519;28;19921;-87
2023/04/22 02:48:50;;;;;;;;;;;9.90;88.30;;;;;;5044706;28;19917;-87
2023/04/22 02:51:16;;;;;;;;;;;9.90;88.30;;;;;;5050445;28;19920;-87
2023/04/22 02:53:41;;;;;;;;;;;9.80;88.30;;;;;;5049674;28;19919;-87
2023/04/22 02:56:07;;;;;;;;;;;9.70;88.40;;;;;;5040697;28;19913;-87
2023/04/22 02:58:33;;;;;;;;;;;9.80;88.30;;;;;;5045410;28;19917;-87
2023/04/22 03:00:58;;;;;;;;;;;9.60;88.40;;;;;;5049982;28;20323;-87
2023/04/22 03:03:24;;;;;;;;;;;9.60;88.50;;;;;;5047525;28;19912;-86
2023/04/22 03:05:49;;;;;;;;;;;9.60;88.50;;;;;;5041064;28;19920;-87
2023/04/22 03:08:18;;;;;;;;;;;9.70;88.20;;;;;;5046785;28;19928;-87
2023/04/22 03:10:43;;;;;;;;;;;9.60;88.30;;;;;;5046457;28;19913;-87
2023/04/22 03:13:09;;;;;;;;;;;9.60;88.30;;;;;;5047104;28;19913;-87
2023/04/22 03:15:34;;;;;;;;;;;9.70;88.30;;;;;;5049879;28;20484;-87
2023/04/22 03:18:00;;;;;;;;;;;9.70;88.50;;;;;;5038145;28;19924;-86
2023/04/22 03:20:28;;;;;;;;;;;9.80;88.40;;;;;;5039811;28;19912;-87
2023/04/22 03:22:53;;;;;;;;;;;9.70;88.40;;;;;;5050615;28;19913;-87
2023/04/22 03:25:19;;;;;;;;;;;9.70;88.30;;;;;;5049930;28;20585;-87
2023/04/22 03:27:47;;;;;;;;;;;9.70;88.30;;;;;;5051152;28;19934;-87
2023/04/22 03:30:13;;;;;;;;;;;9.70;88.30;;;;;;5039777;28;19920;-87
2023/04/22 03:32:38;;;;;;;;;;;9.80;88.40;;;;;;5039427;28;21343;-86
2023/04/22 03:35:04;;;;;;;;;;;9.80;88.40;;;;;;5047536;28;19917;-86
2023/04/22 03:37:30;;;;;;;;;;;9.90;88.20;;;;;;5047867;28;20412;-86
2023/04/22 03:39:55;;;;;;;;;;;9.70;88.30;;;;;;5048895;28;20016;-87
2023/04/22 03:42:26;;;;;;;;;;;9.80;88.30;;;;;;5042098;28;19913;-86
2023/04/22 03:44:52;;;;;;;;;;;9.80;88.30;;;;;;5048433;28;19924;-87
2023/04/22 03:47:17;;;;;;;;;;;9.80;88.50;;;;;;5054659;28;19917;-86
2023/04/22 03:49:43;;;;;;;;;;;9.90;88.30;;;;;;5037763;28;19914;-86
2023/04/22 03:52:08;;;;;;;;;;;9.80;88.30;;;;;;5039020;28;19951;-86
2023/04/22 03:54:34;;;;;;;;;;;9.90;88.30;;;;;;5059051;28;19907;-87
2023/04/22 03:57:00;;;;;;;;;;;9.90;88.40;;;;;;5041097;28;19921;-87
2023/04/22 03:59:30;;;;;;;;;;;9.90;88.40;;;;;;5048065;28;20309;-87
2023/04/22 04:01:59;;;;;;;;;;;9.90;88.50;;;;;;5045102;28;20032;-87
2023/04/22 04:04:25;;;;;;;;;;;9.90;88.60;;;;;;5045209;28;19924;-87
2023/04/22 04:06:50;;;;;;;;;;;9.90;88.70;;;;;;5031534;28;19967;-87
2023/04/22 04:09:16;;;;;;;;;;;9.90;88.80;;;;;;5047402;28;19917;-87
2023/04/22 04:11:41;;;;;;;;;;;9.90;88.80;;;;;;5045410;28;19960;-86
2023/04/22 04:14:08;;;;;;;;;;;9.90;88.80;;;;;;5046881;28;19920;-86
2023/04/22 04:16:34;;;;;;;;;;;9.90;88.70;;;;;;5082027;22;19924;-81
2023/04/22 04:18:59;;;;;;;;;;;9.90;88.60;;;;;;5048177;28;19913;-81
2023/04/22 04:21:25;;;;;;;;;;;9.90;88.80;;;;;;5043776;28;20011;-80
2023/04/22 04:23:51;;;;;;;;;;;9.90;88.60;;;;;;5046804;28;19920;-80
2023/04/22 04:26:17;;;;;;;;;;;10.00;88.60;;;;;;5031667;28;19922;-81
2023/04/22 04:28:42;;;;;;;;;;;10.00;88.40;;;;;;5043529;28;19912;-80
2023/04/22 04:31:07;;;;;;;;;;;9.90;88.40;;;;;;5054232;28;19920;-80
2023/04/22 04:33:33;;;;;;;;;;;9.90;88.40;;;;;;5030019;28;20306;-81
2023/04/22 04:35:59;;;;;;;;;;;9.90;88.50;;;;;;5034288;28;20421;-81
2023/04/22 04:38:25;;;;;;;;;;;10.00;88.40;;;;;;5029072;28;19917;-80
2023/04/22 04:40:50;;;;;;;;;;;10.00;88.50;;;;;;5031376;28;19917;-79
2023/04/22 04:43:16;;;;;;;;;;;10.00;88.60;;;;;;5044020;28;19948;-79
2023/04/22 04:45:48;;;;;;;;;;;10.00;88.70;;;;;;5047344;28;19916;-81
2023/04/22 04:48:13;;;;;;;;;;;10.00;88.70;;;;;;5021640;28;19917;-82
2023/04/22 04:50:42;;;;;;;;;;;10.00;88.80;;;;;;5046429;28;19913;-80
2023/04/22 04:53:08;;;;;;;;;;;10.00;88.90;;;;;;5045840;28;20310;-81
2023/04/22 04:55:33;;;;;;;;;;;10.00;88.90;;;;;;5029172;28;19916;-82
2023/04/22 04:57:59;;;;;;;;;;;10.00;88.70;;;;;;5032676;28;19944;-81
2023/04/22 05:00:24;;;;;;;;;;;10.00;88.70;;;;;;5044751;28;19913;-80
2023/04/22 05:02:50;;;;;;;;;;;10.00;88.70;;;;;;5045642;28;19963;-81
2023/04/22 05:05:15;;;;;;;;;;;10.10;88.70;;;;;;5029240;28;19949;-80
2023/04/22 05:07:41;;;;;;;;;;;10.10;88.80;;;;;;5042814;28;20314;-80
2023/04/22 05:10:07;;;;;;;;;;;10.10;88.80;;;;;;5024652;28;19928;-80
2023/04/22 05:12:32;;;;;;;;;;;10.20;88.80;;;;;;5045614;28;19937;-82
2023/04/22 05:14:58;;;;;;;;;;;10.20;88.80;;;;;;5037013;28;20012;-80
2023/04/22 05:17:23;;;;;;;;;;;10.20;89.00;;;;;;5028590;28;19913;-80
2023/04/22 05:19:49;;;;;;;;;;;10.30;88.90;;;;;;5038709;28;20414;-80
2023/04/22 05:22:14;;;;;;;;;;;10.30;88.90;;;;;;5035665;28;19967;-80
2023/04/22 05:24:40;;;;;;;;;;;10.30;88.90;;;;;;5030897;28;20022;-80
2023/04/22 05:27:06;;;;;;;;;;;10.30;88.90;;;;;;5022841;28;20271;-80
2023/04/22 05:29:31;;;;;;;;;;;10.40;88.70;;;;;;5037470;28;19916;-81
2023/04/22 05:31:57;;;;;;;;;;;10.40;88.70;;;;;;5038312;28;19913;-81
2023/04/22 05:34:22;;;;;;;;;;;10.50;88.80;;;;;;5048046;28;20402;-80
2023/04/22 05:36:48;;;;;;;;;;;10.50;88.90;;;;;;5031138;28;19963;-80
2023/04/22 05:39:13;;;;;;;;;;;10.50;88.90;;;;;;5044945;28;19912;-80
2023/04/22 05:41:38;;;;;;;;;;;10.60;88.80;;;;;;5032735;28;19912;-80
2023/04/22 05:44:04;;;;;;;;;;;10.60;88.70;;;;;;5045370;28;19932;-80
2023/04/22 05:46:30;;;;;;;;;;;10.60;88.60;;;;;;5052110;28;19917;-80
2023/04/22 05:48:55;;;;;;;;;;;10.70;88.90;;;;;;5046462;28;19909;-80
2023/04/22 05:51:21;;;;;;;;;;;10.70;88.70;;;;;;5032279;28;20362;-80
2023/04/22 05:53:46;;;;;;;;;;;10.80;88.80;;;;;;5032084;28;19966;-80
2023/04/22 05:56:12;;;;;;;;;;;10.80;88.60;;;;;;5049133;28;19913;-81
2023/04/22 05:58:37;;;;;;;;;;;10.90;88.60;;;;;;5031396;28;19952;-81
2023/04/22 06:01:03;;;;;;;;;;;11.00;88.60;;;;;;5041715;28;19973;-80
2023/04/22 06:03:28;;;;;;;;;;;11.00;88.60;;;;;;5018367;28;20390;-79
2023/04/22 06:05:54;;;;;;;;;;;11.10;88.60;;;;;;5027860;28;19924;-81
2023/04/22 06:08:19;;;;;;;;;;;11.10;88.50;;;;;;5027011;28;19914;-81
2023/04/22 06:10:45;;;;;;;;;;;11.20;88.50;;;;;;5048236;28;19999;-80
2023/04/22 06:13:10;;;;;;;;;;;11.30;88.60;;;;;;5027921;28;19916;-81
2023/04/22 06:15:36;;;;;;;;;;;11.40;88.30;;;;;;5045798;28;20354;-82
2023/04/22 06:18:01;;;;;;;;;;;11.40;88.30;;;;;;5038876;28;20264;-81
2023/04/22 06:20:27;;;;;;;;;;;11.50;88.20;;;;;;5041578;28;20660;-80
2023/04/22 06:22:52;;;;;;;;;;;11.60;88.20;;;;;;5047062;28;19985;-81
2023/04/22 06:25:18;;;;;;;;;;;11.60;88.10;;;;;;5026538;28;19932;-80
2023/04/22 06:27:43;;;;;;;;;;;11.70;88.10;;;;;;5054594;28;19919;-81
2023/04/22 06:30:10;;;;;;;;;;;11.80;88.10;;;;;;5057688;28;19916;-80
2023/04/22 06:32:36;;;;;;;;;;;12.00;87.40;;;;;;5052833;28;20006;-80
2023/04/22 06:35:01;;;;;;;;;;;11.90;87.60;;;;;;5054192;28;19924;-81
2023/04/22 06:37:27;;;;;;;;;;;12.10;87.60;;;;;;5051577;28;19916;-81
2023/04/22 06:39:52;;;;;;;;;;;12.10;87.50;;;;;;5037700;28;19919;-81
2023/04/22 06:42:18;;;;;;;;;;;12.20;87.30;;;;;;5025627;28;19920;-81
2023/04/22 06:44:43;;;;;;;;;;;12.30;86.50;;;;;;5037826;28;19920;-82
2023/04/22 06:47:08;;;;;;;;;;;12.40;86.40;;;;;;5034347;28;19966;-81
2023/04/22 06:49:37;;;;;;;;;;;12.50;86.40;;;;;;5050301;28;19958;-81
2023/04/22 06:52:02;;;;;;;;;;;12.60;86.00;;;;;;5036079;28;19999;-79
2023/04/22 06:54:28;;;;;;;;;;;12.70;85.90;;;;;;5065099;28;19917;-79
2023/04/22 06:56:53;;;;;;;;;;;12.70;85.70;;;;;;5058167;28;19913;-82
2023/04/22 06:59:19;;;;;;;;;;;12.80;85.20;;;;;;5053478;28;20003;-81
2023/04/22 07:01:44;;;;;;;;;;;12.70;84.70;;;;;;5047465;28;20004;-80
2023/04/22 07:04:10;;;;;;;;;;;12.70;84.80;;;;;;5034385;28;19924;-81
2023/04/22 07:06:35;;;;;;;;;;;12.80;85.10;;;;;;5057887;28;19917;-84
2023/04/22 07:09:01;;;;;;;;;;;12.90;85.50;;;;;;5039590;28;20290;-83
2023/04/22 07:11:26;;;;;;;;;;;12.90;85.90;;;;;;5051176;28;19913;-84
2023/04/22 07:13:52;;;;;;;;;;;12.80;85.20;;;;;;5034873;28;19913;-84
2023/04/22 07:16:18;;;;;;;;;;;13.00;85.50;;;;;;5032462;28;19925;-83
2023/04/22 07:18:43;;;;;;;;;;;13.10;84.40;;;;;;5031549;28;19920;-83
2023/04/22 07:21:09;;;;;;;;;;;13.20;83.80;;;;;;5048299;28;19917;-83
2023/04/22 07:23:34;;;;;;;;;;;13.20;82.70;;;;;;5038343;28;19962;-83
2023/04/22 07:26:00;;;;;;;;;;;13.10;82.70;;;;;;5053416;28;19962;-84
2023/04/22 07:28:25;;;;;;;;;;;13.10;82.90;;;;;;5044703;28;19977;-83
2023/04/22 07:30:52;;;;;;;;;;;13.10;83.10;;;;;;5037101;28;19912;-83
2023/04/22 07:33:18;;;;;;;;;;;13.20;83.00;;;;;;5051499;28;20055;-82
2023/04/22 07:35:43;;;;;;;;;;;13.40;82.20;;;;;;5027087;28;20401;-84
2023/04/22 07:38:09;;;;;;;;;;;13.60;80.90;;;;;;5051178;28;19967;-82
2023/04/22 07:40:34;;;;;;;;;;;13.80;79.80;;;;;;5035676;28;19913;-84
2023/04/22 07:43:00;;;;;;;;;;;14.10;78.40;;;;;;5025641;28;19966;-81
2023/04/22 07:45:25;;;;;;;;;;;14.40;75.30;;;;;;5043491;28;19925;-81
2023/04/22 07:47:51;;;;;;;;;;;14.60;74.50;;;;;;5038153;28;19913;-82
2023/04/22 07:50:16;;;;;;;;;;;14.70;74.00;;;;;;5035403;28;19915;-81
2023/04/22 07:52:41;;;;;;;;;;;15.00;73.50;;;;;;5032447;28;19955;-80
2023/04/22 07:55:07;;;;;;;;;;;15.10;71.10;;;;;;5048769;28;19921;-80
2023/04/22 07:57:37;;;;;;;;;;;15.20;69.90;;;;;;5052422;28;19992;-80
2023/04/22 08:00:04;;;;;;;;;;;15.50;69.40;;;;;;5049716;28;20527;-81
2023/04/22 08:02:29;;;;;;;;;;;15.70;68.60;;;;;;5038917;28;19913;-80
2023/04/22 08:04:55;;;;;;;;;;;15.70;67.10;;;;;;5043401;28;19932;-80
2023/04/22 08:07:20;;;;;;;;;;;15.80;67.90;;;;;;5039864;28;20234;-80
2023/04/22 08:09:46;;;;;;;;;;;15.70;69.40;;;;;;5046766;28;19958;-81
2023/04/22 08:12:13;;;;;;;;;;;15.90;67.50;;;;;;5034069;28;20435;-81
2023/04/22 08:14:38;;;;;;;;;;;16.00;66.30;;;;;;5039566;28;19924;-82
2023/04/22 08:17:04;;;;;;;;;;;16.10;66.80;;;;;;5051504;28;19921;-82
2023/04/22 08:19:29;;;;;;;;;;;16.10;67.20;;;;;;5021171;28;19943;-82
2023/04/22 08:21:56;;;;;;;;;;;16.10;68.30;;;;;;5036166;28;19979;-84
2023/04/22 08:24:22;;;;;;;;;;;16.10;66.80;;;;;;5047433;28;20027;-82
2023/04/22 08:26:47;;;;;;;;;;;16.20;66.70;;;;;;5031837;28;20413;-83
2023/04/22 08:29:13;;;;;;;;;;;16.40;65.90;;;;;;5026738;28;19924;-82
2023/04/22 08:31:38;;;;;;;;;;;16.50;65.30;;;;;;5040162;28;19910;-81
2023/04/22 08:34:04;;;;;;;;;;;16.70;65.10;;;;;;5043299;28;19944;-81
2023/04/22 08:36:30;;;;;;;;;;;16.90;63.20;;;;;;5021456;28;20381;-82
2023/04/22 08:38:56;;;;;;;;;;;17.10;62.50;;;;;;5035066;28;20239;-82
2023/04/22 08:41:23;;;;;;;;;;;17.00;64.00;;;;;;5041996;28;19917;-82
2023/04/22 08:43:49;;;;;;;;;;;17.10;63.10;;;;;;5027198;28;19917;-82
2023/04/22 08:46:16;;;;;;;;;;;17.30;61.60;;;;;;5034864;28;19927;-82
2023/04/22 08:48:42;;;;;;;;;;;17.30;61.10;;;;;;5024124;28;19913;-82
2023/04/22 08:51:08;;;;;;;;;;;17.40;61.80;;;;;;5045182;28;19971;-82
2023/04/22 08:53:33;;;;;;;;;;;17.50;60.70;;;;;;5058355;28;19897;-82
2023/04/22 08:55:59;;;;;;;;;;;17.60;59.80;;;;;;5059727;28;19913;-83
2023/04/22 08:58:26;;;;;;;;;;;17.70;61.30;;;;;;5032757;28;19912;-81
2023/04/22 09:00:53;;;;;;;;;;;17.80;60.70;;;;;;5044501;28;20000;-81
2023/04/22 09:03:19;;;;;;;;;;;17.70;59.70;;;;;;5033841;28;19918;-81
2023/04/22 09:05:45;;;;;;;;;;;17.70;60.40;;;;;;5031022;28;19917;-81
2023/04/22 09:08:12;;;;;;;;;;;17.80;58.30;;;;;;5038681;28;20382;-82
2023/04/22 09:10:38;;;;;;;;;;;17.70;59.80;;;;;;5032073;28;19978;-85
2023/04/22 09:13:05;;;;;;;;;;;17.80;58.30;;;;;;5029218;28;19985;-83
2023/04/22 09:15:31;;;;;;;;;;;17.90;59.90;;;;;;5035568;28;19959;-84
2023/04/22 09:17:57;;;;;;;;;;;18.00;59.20;;;;;;5022937;28;20310;-84
2023/04/22 09:20:27;;;;;;;;;;;18.10;59.00;;;;;;5023024;28;20367;-83
2023/04/22 09:22:52;;;;;;;;;;;18.20;57.40;;;;;;5039126;28;19916;-82
2023/04/22 09:25:19;;;;;;;;;;;18.20;57.40;;;;;;5020193;28;19936;-81
2023/04/22 09:27:51;;;;;;;;;;;18.20;56.70;;;;;;5025193;28;19925;-82
2023/04/22 09:30:21;;;;;;;;;;;18.10;57.40;;;;;;5038589;28;19917;-82
2023/04/22 09:32:54;;;;;;;;;;;18.10;58.20;;;;;;5024175;28;19920;-81
2023/04/22 09:35:30;;;;;;;;;;;18.20;57.80;;;;;;5025863;28;19913;-82
2023/04/22 09:37:56;;;;;;;;;;;18.20;58.00;;;;;;5040970;28;19935;-81
2023/04/22 09:40:22;;;;;;;;;;;18.40;56.90;;;;;;5027058;28;19917;-85
2023/04/22 09:42:49;;;;;;;;;;;18.40;58.50;;;;;;5029733;28;19921;-88
2023/04/22 09:45:28;;;;;;;;;;;18.50;57.00;;;;;;5050029;28;19925;-85
2023/04/22 09:47:55;;;;;;;;;;;18.50;57.10;;;;;;5032162;28;19935;-86
2023/04/22 09:50:23;;;;;;;;;;;18.50;57.70;;;;;;5023303;28;19957;-90
2023/04/22 09:52:56;;;;;;;;;;;18.60;57.30;;;;;;5042020;28;19917;-85
2023/04/22 09:55:22;;;;;;;;;;;18.80;58.10;;;;;;5039842;28;19913;-85
2023/04/22 09:57:52;;;;;;;;;;;18.90;57.00;;;;;;5031242;28;19916;-85
2023/04/22 10:00:18;;;;;;;;;;;19.00;56.40;;;;;;5029485;28;19959;-83
2023/04/22 10:02:43;;;;;;;;;;;19.00;55.10;;;;;;5062021;28;19901;-82
2023/04/22 10:05:10;;;;;;;;;;;19.00;55.90;;;;;;5039920;28;19917;-83
2023/04/22 10:07:38;;;;;;;;;;;19.00;54.70;;;;;;5028163;28;20024;-85
2023/04/22 10:10:08;;;;;;;;;;;19.00;55.30;;;;;;5034494;28;19912;-84
2023/04/22 10:12:34;;;;;;;;;;;19.10;55.00;;;;;;5039409;28;19952;-84
2023/04/22 10:17:32;;;;;;;;;;;19.10;55.00;;;;;;4972920;28;19989;-82
2023/04/22 10:20:02;;;;;;;;;;;19.10;55.00;;;;;;4953558;28;20321;-81
2023/04/22 10:22:27;;;;;;;;;;;19.30;54.90;;;;;;4965037;28;19921;-81
2023/04/22 10:24:56;;;;;;;;;;;19.30;54.70;;;;;;4954418;28;19930;-81
2023/04/22 10:27:22;;;;;;;;;;;19.40;54.30;;;;;;4955456;29;20485;-82
2023/04/22 10:29:47;;;;;;;;;;;19.50;52.80;;;;;;4950935;29;19918;-81
2023/04/22 10:32:16;;;;;;;;;;;19.60;53.00;;;;;;4939891;29;19915;-81
2023/04/22 10:34:42;;;;;;;;;;;19.60;54.50;;;;;;4956048;29;20002;-82
2023/04/22 10:37:09;;;;;;;;;;;19.60;54.00;;;;;;4940972;29;19950;-81
2023/04/22 10:39:35;;;;;;;;;;;19.80;52.60;;;;;;4954061;28;19918;-81
2023/04/22 10:42:09;;;;;;;;;;;19.90;51.90;;;;;;4944027;28;20433;-81
2023/04/22 10:44:44;;;;;;;;;;;20.10;51.80;;;;;;4945182;28;19915;-82
2023/04/22 10:47:10;;;;;;;;;;;20.20;51.10;;;;;;4954880;28;19930;-80
2023/04/22 10:49:36;;;;;;;;;;;20.40;51.60;;;;;;4951747;29;19933;-81
2023/04/22 10:52:02;;;;;;;;;;;20.40;52.00;;;;;;4948751;29;19914;-84
2023/04/22 10:54:30;;;;;;;;;;;20.40;50.70;;;;;;4944930;29;19911;-83
2023/04/22 10:57:00;;;;;;;;;;;20.40;50.60;;;;;;4959351;28;19915;-84
2023/04/22 10:59:26;;;;;;;;;;;20.40;50.70;;;;;;4958776;28;19915;-83
2023/04/22 11:01:52;;;;;;;;;;;20.30;51.00;;;;;;4960503;29;20309;-84
2023/04/22 11:04:18;;;;;;;;;;;20.40;50.10;;;;;;4948283;28;20306;-84
2023/04/22 11:06:44;;;;;;;;;;;20.50;49.30;;;;;;4940798;29;19915;-83
2023/04/22 11:09:11;;;;;;;;;;;20.60;49.90;;;;;;4940255;29;19982;-85
2023/04/22 11:11:37;;;;;;;;;;;20.80;49.40;;;;;;4941444;29;19911;-84
2023/04/22 11:14:02;;;;;;;;;;;21.00;48.30;;;;;;4956403;28;19914;-82
2023/04/22 11:16:28;;;;;;;;;;;21.00;49.10;;;;;;4956378;28;19954;-84
2023/04/22 11:18:54;;;;;;;;;;;21.00;47.90;;;;;;4940588;29;19918;-85
2023/04/22 11:21:20;;;;;;;;;;;20.90;48.20;;;;;;4939322;29;19915;-85
2023/04/22 11:23:50;;;;;;;;;;;20.80;48.80;;;;;;4945330;29;19918;-83
2023/04/22 11:26:16;;;;;;;;;;;20.60;49.50;;;;;;4940039;29;20546;-84
2023/04/22 11:28:45;;;;;;;;;;;20.40;49.30;;;;;;4956260;29;19911;-84
2023/04/22 11:31:10;;;;;;;;;;;20.20;49.80;;;;;;4952505;28;19921;-83
2023/04/22 11:33:37;;;;;;;;;;;20.00;50.50;;;;;;4951568;29;20429;-84
2023/04/22 11:36:03;;;;;;;;;;;20.10;50.70;;;;;;4956108;28;20302;-84
2023/04/22 11:38:29;;;;;;;;;;;20.10;51.00;;;;;;4954891;28;19915;-83
2023/04/22 11:40:57;;;;;;;;;;;20.10;51.70;;;;;;4944562;28;19914;-83
2023/04/22 11:43:25;;;;;;;;;;;20.10;52.10;;;;;;4939704;29;19918;-86
2023/04/22 11:45:54;;;;;;;;;;;20.20;52.20;;;;;;4944001;29;19945;-86
2023/04/22 11:48:19;;;;;;;;;;;20.30;50.60;;;;;;4951536;28;20020;-86
2023/04/22 11:50:46;;;;;;;;;;;20.40;50.80;;;;;;4943592;29;19926;-85
2023/04/22 11:53:14;;;;;;;;;;;20.50;51.90;;;;;;4955034;28;19921;-84
2023/04/22 11:55:43;;;;;;;;;;;20.50;52.20;;;;;;4937918;29;20008;-85
2023/04/22 11:58:10;;;;;;;;;;;20.60;50.80;;;;;;4933315;29;20009;-85
2023/04/22 12:00:36;;;;;;;;;;;20.90;49.80;;;;;;4935578;29;19919;-85
2023/04/22 12:03:06;;;;;;;;;;;20.90;49.10;;;;;;4935836;29;19937;-85
2023/04/22 12:05:39;;;;;;;;;;;20.90;49.80;;;;;;4932260;29;19973;-85
2023/04/22 12:08:35;;;;;;;;;;;21.10;49.60;;;;;;4948736;28;20302;-86
2023/04/22 12:11:02;;;;;;;;;;;21.20;49.70;;;;;;4940651;29;20683;-85
2023/04/22 12:13:29;;;;;;;;;;;21.40;48.40;;;;;;4943192;29;20314;-85
2023/04/22 12:15:56;;;;;;;;;;;21.50;48.50;;;;;;4940572;28;20279;-86
2023/04/22 12:18:48;;;;;;;;;;;21.50;48.60;;;;;;4957352;28;19919;-85
2023/04/22 12:21:15;;;;;;;;;;;21.60;49.70;;;;;;4920102;29;19945;-86
2023/04/22 12:23:41;;;;;;;;;;;21.70;48.00;;;;;;4944213;29;20013;-87
2023/04/22 12:26:07;;;;;;;;;;;21.60;48.60;;;;;;4947206;28;19918;-87
2023/04/22 12:28:32;;;;;;;;;;;21.70;48.00;;;;;;4942070;28;20760;-86
2023/04/22 12:30:57;;;;;;;;;;;21.90;48.60;;;;;;4948927;28;20614;-86
2023/04/22 12:33:23;;;;;;;;;;;21.70;48.20;;;;;;4944689;29;19915;-87
2023/04/22 12:35:51;;;;;;;;;;;21.60;47.70;;;;;;4944539;29;19919;-87
2023/04/22 12:38:17;;;;;;;;;;;21.60;47.90;;;;;;4946300;29;19937;-87
2023/04/22 12:40:42;;;;;;;;;;;21.60;47.80;;;;;;4952696;29;20366;-86
2023/04/22 12:43:08;;;;;;;;;;;21.60;48.60;;;;;;4952648;28;20409;-86
2023/04/22 12:45:33;;;;;;;;;;;21.60;49.30;;;;;;4935822;29;19918;-86
2023/04/22 12:47:59;;;;;;;;;;;21.50;49.10;;;;;;4945590;28;20002;-86
2023/04/22 12:50:24;;;;;;;;;;;21.40;49.00;;;;;;4935585;29;19914;-85
2023/04/22 12:52:50;;;;;;;;;;;21.30;49.40;;;;;;4948046;28;19979;-86
2023/04/22 12:55:16;;;;;;;;;;;21.20;49.20;;;;;;4948842;28;19918;-86
2023/04/22 12:57:43;;;;;;;;;;;21.20;49.80;;;;;;4943335;29;19938;-85
2023/04/22 13:00:13;;;;;;;;;;;21.10;49.40;;;;;;4946275;28;19922;-85
2023/04/22 13:02:46;;;;;;;;;;;21.10;49.60;;;;;;4944512;29;19915;-86
2023/04/22 13:05:12;;;;;;;;;;;21.10;50.00;;;;;;4942075;28;19924;-86
2023/04/22 13:07:38;;;;;;;;;;;21.20;50.10;;;;;;4939254;28;20293;-86
2023/04/22 13:10:04;;;;;;;;;;;21.40;50.00;;;;;;4943477;29;19914;-86
2023/04/22 13:12:32;;;;;;;;;;;21.60;50.50;;;;;;4924913;28;19941;-86
2023/04/22 13:14:57;;;;;;;;;;;21.60;49.70;;;;;;4947445;28;20049;-84
2023/04/22 13:17:23;;;;;;;;;;;21.70;48.70;;;;;;4947619;28;19974;-85
2023/04/22 13:19:49;;;;;;;;;;;21.90;49.80;;;;;;4951568;29;19914;-85
2023/04/22 13:22:15;;;;;;;;;;;21.90;48.40;;;;;;4945059;29;20047;-85
2023/04/22 13:24:41;;;;;;;;;;;21.60;48.70;;;;;;4947533;29;20726;-87
2023/04/22 13:27:06;;;;;;;;;;;21.60;49.00;;;;;;4926695;29;19990;-86
2023/04/22 13:29:33;;;;;;;;;;;21.70;49.60;;;;;;4951246;29;20293;-87
2023/04/22 13:31:58;;;;;;;;;;;21.70;50.00;;;;;;4960026;28;19915;-85
2023/04/22 13:34:24;;;;;;;;;;;21.70;49.10;;;;;;4957592;29;19942;-89
2023/04/22 13:36:50;;;;;;;;;;;21.70;49.30;;;;;;4956796;29;19914;-86
2023/04/22 13:39:16;;;;;;;;;;;21.70;49.20;;;;;;4948592;28;19930;-88
2023/04/22 13:41:42;;;;;;;;;;;21.70;49.10;;;;;;4942759;28;19911;-86
2023/04/22 13:44:09;;;;;;;;;;;21.70;48.60;;;;;;4960469;29;19910;-85
2023/04/22 13:46:35;;;;;;;;;;;21.60;48.60;;;;;;4943478;29;19919;-86
2023/04/22 13:49:00;;;;;;;;;;;21.80;49.70;;;;;;4941869;29;19910;-88
2023/04/22 13:51:26;;;;;;;;;;;21.90;48.80;;;;;;4944630;29;20473;-87
2023/04/22 13:53:54;;;;;;;;;;;21.70;48.80;;;;;;4957061;29;20000;-86
2023/04/22 13:56:20;;;;;;;;;;;21.70;49.30;;;;;;4958804;28;19915;-88
2023/04/22 13:58:45;;;;;;;;;;;22.00;49.20;;;;;;4959979;29;19921;-86
2023/04/22 14:01:11;;;;;;;;;;;22.10;48.40;;;;;;4955050;29;19925;-86
2023/04/22 14:03:37;;;;;;;;;;;22.00;49.30;;;;;;4939250;29;19924;-86
2023/04/22 14:06:05;;;;;;;;;;;21.90;48.80;;;;;;4957207;29;19990;-86
2023/04/22 14:08:31;;;;;;;;;;;21.80;49.30;;;;;;4949658;28;19941;-88
2023/04/22 14:10:58;;;;;;;;;;;21.70;49.90;;;;;;4939219;29;20009;-86
2023/04/22 14:13:24;;;;;;;;;;;21.60;49.40;;;;;;4952988;29;19911;-85
2023/04/22 14:15:50;;;;;;;;;;;21.50;50.20;;;;;;4928318;29;19926;-84
2023/04/22 14:18:15;;;;;;;;;;;21.40;50.50;;;;;;4942368;29;20294;-86
2023/04/22 14:20:44;;;;;;;;;;;21.20;50.80;;;;;;4941907;29;20001;-83
2023/04/22 14:23:10;;;;;;;;;;;21.20;50.40;;;;;;4954938;29;20602;-84